createdAt,value
2023-02-02T00:02:02.352Z,6.73
2023-02-02T00:04:32.394Z,6.73
2023-02-02T00:06:59.919Z,7.80
2023-02-02T00:09:29.311Z,7.97
2023-02-02T00:11:57.033Z,8.87
2023-02-02T00:14:24.869Z,9.00
2023-02-02T00:16:53.484Z,8.03
2023-02-02T00:19:26.374Z,7.90
2023-02-02T00:21:54.542Z,8.20
2023-02-02T00:24:21.768Z,8.40
2023-02-02T00:26:52.084Z,8.50
2023-02-02T00:29:28.584Z,8.33
2023-02-02T00:31:55.695Z,9.67
2023-02-02T00:34:22.995Z,7.77
2023-02-02T00:36:50.322Z,8.07
2023-02-02T00:39:27.481Z,8.97
2023-02-02T00:41:55.705Z,8.27
2023-02-02T00:44:41.372Z,7.80
2023-02-02T00:47:08.046Z,7.20
2023-02-02T00:49:34.710Z,7.77
2023-02-02T00:52:01.388Z,8.40
2023-02-02T00:54:28.550Z,7.97
2023-02-02T00:56:55.254Z,8.53
2023-02-02T00:59:21.920Z,7.83
2023-02-02T01:01:48.653Z,6.90
2023-02-02T01:04:15.348Z,7.10
2023-02-02T01:06:42.164Z,9.00
2023-02-02T01:09:08.941Z,8.03
2023-02-02T01:11:36.667Z,8.17
2023-02-02T01:14:03.641Z,8.10
2023-02-02T01:16:30.471Z,8.20
2023-02-02T01:18:57.272Z,7.93
2023-02-02T01:21:24.220Z,7.50
2023-02-02T01:23:50.944Z,8.87
2023-02-02T01:26:18.305Z,7.87
2023-02-02T01:28:45.513Z,9.30
2023-02-02T01:31:14.927Z,8.30
2023-02-02T01:33:43.565Z,8.40
2023-02-02T01:36:16.522Z,8.57
2023-02-02T01:38:43.719Z,10.00
2023-02-02T01:41:20.715Z,9.30
2023-02-02T01:43:47.378Z,10.07
2023-02-02T01:46:15.353Z,9.13
2023-02-02T01:48:46.462Z,9.87
2023-02-02T01:51:17.762Z,8.10
2023-02-02T01:53:46.049Z,9.17
2023-02-02T01:56:17.500Z,10.50
2023-02-02T01:58:45.057Z,9.53
2023-02-02T02:01:12.479Z,10.97
2023-02-02T02:03:39.428Z,10.93
2023-02-02T02:06:13.832Z,11.20
2023-02-02T02:08:43.911Z,12.87
2023-02-02T02:11:10.860Z,11.93
2023-02-02T02:13:57.429Z,11.53
2023-02-02T02:16:49.317Z,15.17
2023-02-02T02:20:18.025Z,12.67
2023-02-02T02:23:22.771Z,14.17
2023-02-02T02:26:20.179Z,13.40
2023-02-02T02:29:09.532Z,16.47
2023-02-02T02:32:01.079Z,17.70
2023-02-02T02:34:50.224Z,18.20
2023-02-02T02:37:40.924Z,16.60
2023-02-02T02:40:35.422Z,16.80
2023-02-02T02:43:15.454Z,16.43
2023-02-02T02:45:44.556Z,18.40
2023-02-02T02:48:12.405Z,15.57
2023-02-02T02:50:39.189Z,15.87
2023-02-02T02:53:11.694Z,13.73
2023-02-02T02:55:54.967Z,15.00
2023-02-02T02:58:41.999Z,14.30
2023-02-02T03:01:27.852Z,14.57
2023-02-02T03:04:00.321Z,14.50
2023-02-02T03:06:44.799Z,15.23
2023-02-02T03:09:17.015Z,14.53
2023-02-02T03:11:44.058Z,12.47
2023-02-02T03:14:10.814Z,12.90
2023-02-02T03:16:37.714Z,13.53
2023-02-02T03:19:06.146Z,10.40
2023-02-02T03:21:33.700Z,11.17
2023-02-02T03:24:01.028Z,11.53
2023-02-02T03:26:28.505Z,12.77
2023-02-02T03:28:57.325Z,11.93
2023-02-02T03:31:26.967Z,11.07
2023-02-02T03:33:54.107Z,11.07
2023-02-02T03:36:21.628Z,10.30
2023-02-02T03:38:48.456Z,11.60
2023-02-02T03:41:15.249Z,11.33
2023-02-02T03:43:41.919Z,11.37
2023-02-02T03:46:08.644Z,12.30
2023-02-02T03:48:37.279Z,12.87
2023-02-02T03:51:12.001Z,12.53
2023-02-02T03:53:40.191Z,13.47
2023-02-02T03:56:07.233Z,13.00
2023-02-02T03:58:33.940Z,13.00
2023-02-02T04:01:05.757Z,13.13
2023-02-02T04:03:32.964Z,14.40
2023-02-02T04:06:00.207Z,13.83
2023-02-02T04:08:26.926Z,11.80
2023-02-02T04:10:53.947Z,13.80
2023-02-02T04:13:20.587Z,14.60
2023-02-02T04:15:47.294Z,14.00
2023-02-02T04:18:13.968Z,13.70
2023-02-02T04:20:40.641Z,14.30
2023-02-02T04:23:07.322Z,15.53
2023-02-02T04:25:33.987Z,14.17
2023-02-02T04:28:00.629Z,13.57
2023-02-02T04:30:27.285Z,13.20
2023-02-02T04:32:55.040Z,15.37
2023-02-02T04:35:21.951Z,14.17
2023-02-02T04:37:48.760Z,15.20
2023-02-02T04:40:15.515Z,14.40
2023-02-02T04:42:42.154Z,14.43
2023-02-02T04:45:09.228Z,15.87
2023-02-02T04:47:35.945Z,16.20
2023-02-02T04:50:02.631Z,15.30
2023-02-02T04:52:29.549Z,17.23
2023-02-02T04:54:56.199Z,15.07
2023-02-02T04:57:22.930Z,15.90
2023-02-02T04:59:49.693Z,17.40
2023-02-02T05:02:16.406Z,16.80
2023-02-02T05:04:43.077Z,17.50
2023-02-02T05:07:09.776Z,15.60
2023-02-02T05:09:36.423Z,16.60
2023-02-02T05:12:03.385Z,16.20
2023-02-02T05:14:30.081Z,16.80
2023-02-02T05:16:56.795Z,17.40
2023-02-02T05:19:23.472Z,18.53
2023-02-02T05:21:51.325Z,19.03
2023-02-02T05:24:18.183Z,16.40
2023-02-02T05:26:44.987Z,17.40
2023-02-02T05:29:11.750Z,17.20
2023-02-02T05:31:38.483Z,16.47
2023-02-02T05:34:06.811Z,18.13
2023-02-02T05:36:33.713Z,15.93
2023-02-02T05:39:00.463Z,16.87
2023-02-02T05:41:27.125Z,18.77
2023-02-02T05:43:53.855Z,17.87
2023-02-02T05:46:20.600Z,17.73
2023-02-02T05:48:47.590Z,17.27
2023-02-02T05:51:33.376Z,18.07
2023-02-02T05:54:01.033Z,15.13
2023-02-02T05:56:27.860Z,15.20
2023-02-02T05:58:54.545Z,16.90
2023-02-02T06:01:21.967Z,19.27
2023-02-02T06:03:48.757Z,16.13
2023-02-02T06:06:15.471Z,17.30
2023-02-02T06:08:42.116Z,17.73
2023-02-02T06:11:13.298Z,18.10
2023-02-02T06:13:40.019Z,18.87
2023-02-02T06:16:07.370Z,19.00
2023-02-02T06:18:35.353Z,20.07
2023-02-02T06:21:05.619Z,19.33
2023-02-02T06:23:33.478Z,20.40
2023-02-02T06:26:00.659Z,21.30
2023-02-02T06:28:27.311Z,24.73
2023-02-02T06:30:54.015Z,22.53
2023-02-02T06:33:20.695Z,22.97
2023-02-02T06:35:47.408Z,20.63
2023-02-02T06:38:14.100Z,20.70
2023-02-02T06:40:40.772Z,19.17
2023-02-02T06:43:08.947Z,21.63
2023-02-02T06:45:39.991Z,21.90
2023-02-02T06:48:10.764Z,19.03
2023-02-02T06:50:40.645Z,19.70
2023-02-02T06:53:07.354Z,19.90
2023-02-02T06:55:33.986Z,18.43
2023-02-02T06:58:01.518Z,19.93
2023-02-02T07:00:29.976Z,20.43
2023-02-02T07:02:56.800Z,18.10
2023-02-02T07:05:24.279Z,20.50
2023-02-02T07:07:51.436Z,19.23
2023-02-02T07:11:13.315Z,16.50
2023-02-02T07:13:06.897Z,19.03
2023-02-02T07:15:34.375Z,17.73
2023-02-02T07:18:01.763Z,17.43
2023-02-02T07:20:28.422Z,18.23
2023-02-02T07:22:55.160Z,15.80
2023-02-02T07:25:22.565Z,17.67
2023-02-02T07:27:53.594Z,19.33
2023-02-02T07:30:20.759Z,18.77
2023-02-02T07:32:49.410Z,19.33
2023-02-02T07:35:17.296Z,17.37
2023-02-02T07:37:43.954Z,18.97
2023-02-02T07:40:11.337Z,18.20
2023-02-02T07:42:38.011Z,18.07
2023-02-02T07:45:24.318Z,18.97
2023-02-02T07:47:57.206Z,19.50
2023-02-02T07:50:25.220Z,20.77
2023-02-02T07:52:52.538Z,20.47
2023-02-02T07:55:19.889Z,19.60
2023-02-02T07:57:46.663Z,20.70
2023-02-02T08:00:13.904Z,21.03
2023-02-02T08:02:40.621Z,21.73
2023-02-02T08:05:07.533Z,20.67
2023-02-02T08:07:34.960Z,20.80
2023-02-02T08:10:01.761Z,20.33
2023-02-02T08:12:28.452Z,20.30
2023-02-02T08:14:55.197Z,20.43
2023-02-02T08:17:23.215Z,21.77
2023-02-02T08:19:49.926Z,21.77
2023-02-02T08:22:17.894Z,22.10
2023-02-02T08:24:45.527Z,22.10
2023-02-02T08:27:12.187Z,22.30
2023-02-02T08:29:39.415Z,21.47
2023-02-02T08:32:06.190Z,21.57
2023-02-02T08:34:36.733Z,22.07
2023-02-02T08:37:03.973Z,19.67
2023-02-02T08:39:30.649Z,21.17
2023-02-02T08:41:57.563Z,21.03
2023-02-02T08:44:25.150Z,23.13
2023-02-02T08:46:54.475Z,21.17
2023-02-02T08:49:21.318Z,21.60
2023-02-02T08:51:47.964Z,18.13
2023-02-02T08:54:14.624Z,21.40
2023-02-02T08:56:41.278Z,20.00
2023-02-02T08:59:08.087Z,21.60
2023-02-02T09:01:35.561Z,19.90
2023-02-02T09:04:05.503Z,21.17
2023-02-02T09:06:34.635Z,19.63
2023-02-02T09:09:01.733Z,20.33
2023-02-02T09:11:28.958Z,23.43
2023-02-02T09:13:58.380Z,20.20
2023-02-02T09:16:26.467Z,20.10
2023-02-02T09:18:53.831Z,17.60
2023-02-02T09:21:20.944Z,18.03
2023-02-02T09:23:50.089Z,16.70
2023-02-02T09:26:28.543Z,17.30
2023-02-02T09:29:04.101Z,18.90
2023-02-02T09:31:34.383Z,18.90
2023-02-02T09:34:03.775Z,19.53
2023-02-02T09:36:30.776Z,19.30
2023-02-02T09:38:57.657Z,21.13
2023-02-02T09:41:39.337Z,18.67
2023-02-02T09:44:13.425Z,20.43
2023-02-02T09:46:40.079Z,20.50
2023-02-02T09:49:15.032Z,22.77
2023-02-02T09:51:46.257Z,21.50
2023-02-02T09:54:20.471Z,21.00
2023-02-02T09:56:51.523Z,21.33
2023-02-02T09:59:27.672Z,22.53
2023-02-02T10:01:58.404Z,24.50
2023-02-02T10:04:36.058Z,23.20
2023-02-02T10:07:34.395Z,22.87
2023-02-02T10:10:18.960Z,19.47
2023-02-02T10:12:51.920Z,23.10
2023-02-02T10:15:18.645Z,23.27
2023-02-02T10:17:56.527Z,22.80
2023-02-02T10:20:48.686Z,22.20
2023-02-02T10:23:23.234Z,22.10
2023-02-02T10:26:20.263Z,21.67
2023-02-02T10:29:15.321Z,23.30
2023-02-02T10:32:22.459Z,20.53
2023-02-02T10:35:37.001Z,21.17
2023-02-02T10:38:33.210Z,21.80
2023-02-02T10:41:14.394Z,22.07
2023-02-02T10:44:10.306Z,24.60
2023-02-02T10:46:42.893Z,21.63
2023-02-02T10:49:19.756Z,24.57
2023-02-02T10:52:02.478Z,21.83
2023-02-02T10:54:59.217Z,22.53
2023-02-02T10:58:01.985Z,19.47
2023-02-02T11:00:35.548Z,16.83
2023-02-02T11:03:04.620Z,21.70
2023-02-02T11:05:50.801Z,18.63
2023-02-02T11:08:20.925Z,21.50
2023-02-02T11:10:52.252Z,23.73
2023-02-02T11:13:27.433Z,21.57
2023-02-02T11:16:19.881Z,22.67
2023-02-02T11:18:47.045Z,22.90
2023-02-02T11:21:23.306Z,22.70
2023-02-02T11:24:22.014Z,21.23
2023-02-02T11:26:50.463Z,21.17
2023-02-02T11:29:27.414Z,22.47
2023-02-02T11:31:54.728Z,21.53
2023-02-02T11:34:28.309Z,20.50
2023-02-02T11:37:02.452Z,20.70
2023-02-02T11:39:29.196Z,20.40
2023-02-02T11:42:20.126Z,20.27
2023-02-02T11:44:53.531Z,20.13
2023-02-02T11:47:32.597Z,18.73
2023-02-02T11:50:02.269Z,19.80
2023-02-02T11:52:33.038Z,19.33
2023-02-02T11:55:02.528Z,19.07
2023-02-02T11:57:30.488Z,18.07
2023-02-02T12:00:26.952Z,18.50
2023-02-02T12:02:54.166Z,18.87
2023-02-02T12:05:21.192Z,18.77
2023-02-02T12:07:48.930Z,18.30
2023-02-02T12:10:34.020Z,18.40
2023-02-02T12:13:10.524Z,17.80
2023-02-02T12:16:08.385Z,15.80
2023-02-02T12:18:40.776Z,15.47
2023-02-02T12:21:07.436Z,16.93
2023-02-02T12:23:55.489Z,17.93
2023-02-02T12:26:34.311Z,15.83
2023-02-02T12:29:19.060Z,16.60
2023-02-02T12:32:15.090Z,15.90
2023-02-02T12:34:54.776Z,14.43
2023-02-02T12:37:49.244Z,16.60
2023-02-02T12:40:49.780Z,16.90
2023-02-02T12:43:35.099Z,14.37
2023-02-02T12:46:20.369Z,15.17
2023-02-02T12:49:07.622Z,16.70
2023-02-02T12:51:54.060Z,14.87
2023-02-02T12:54:52.733Z,14.83
2023-02-02T12:57:37.238Z,15.30
2023-02-02T13:00:07.165Z,15.37
2023-02-02T13:03:18.223Z,16.77
2023-02-02T13:06:10.433Z,15.67
2023-02-02T13:08:51.811Z,14.50
2023-02-02T13:11:32.850Z,15.60
2023-02-02T13:14:24.249Z,14.90
2023-02-02T13:16:55.918Z,16.57
2023-02-02T13:19:40.316Z,15.20
2023-02-02T13:22:29.150Z,12.87
2023-02-02T13:25:00.885Z,14.80
2023-02-02T13:27:30.588Z,15.83
2023-02-02T13:30:30.401Z,14.60
2023-02-02T13:33:04.770Z,14.00
2023-02-02T13:35:39.274Z,14.20
2023-02-02T13:38:25.638Z,14.73
2023-02-02T13:40:55.864Z,15.00
2023-02-02T13:43:32.194Z,14.63
2023-02-02T13:46:23.184Z,15.27
2023-02-02T13:49:07.266Z,13.73
2023-02-02T13:52:15.020Z,14.87
2023-02-02T13:55:04.791Z,12.20
2023-02-02T13:58:17.587Z,14.23
2023-02-02T14:00:53.845Z,13.97
2023-02-02T14:03:33.672Z,13.23
2023-02-02T14:06:19.079Z,13.20
2023-02-02T14:08:56.297Z,12.83
2023-02-02T14:11:37.721Z,13.27
2023-02-02T14:14:33.377Z,12.70
2023-02-02T14:17:17.177Z,13.27
2023-02-02T14:19:43.782Z,13.60
2023-02-02T14:22:11.723Z,13.00
2023-02-02T14:24:40.478Z,13.50
2023-02-02T14:27:07.153Z,13.73
2023-02-02T14:29:36.618Z,14.70
2023-02-02T14:32:29.369Z,14.13
2023-02-02T14:35:08.371Z,13.57
2023-02-02T14:37:53.766Z,13.40
2023-02-02T14:40:33.628Z,14.03
2023-02-02T14:43:49.491Z,14.40
2023-02-02T14:46:24.379Z,14.23
2023-02-02T14:48:53.806Z,13.60
2023-02-02T14:51:21.383Z,15.27
2023-02-02T14:54:09.943Z,15.70
2023-02-02T14:56:49.801Z,12.70
2023-02-02T14:59:27.663Z,13.40
2023-02-02T15:02:20.469Z,13.33
2023-02-02T15:04:48.144Z,13.07
2023-02-02T15:07:23.733Z,13.13
2023-02-02T15:09:58.090Z,12.90
2023-02-02T15:12:35.526Z,14.47
2023-02-02T15:15:20.495Z,15.90
2023-02-02T15:18:07.592Z,13.67
2023-02-02T15:20:40.553Z,12.43
2023-02-02T15:23:18.980Z,12.40
2023-02-02T15:25:51.589Z,11.20
2023-02-02T15:29:02.331Z,11.20
2023-02-02T15:31:46.461Z,11.90
2023-02-02T15:34:17.653Z,18.33
2023-02-02T15:36:46.957Z,14.80
2023-02-02T15:39:41.646Z,16.33
2023-02-02T15:42:51.266Z,12.87
2023-02-02T15:45:54.727Z,9.80
2023-02-02T15:48:30.639Z,11.07
2023-02-02T15:51:15.364Z,11.30
2023-02-02T15:53:41.975Z,11.40
2023-02-02T15:56:31.874Z,12.83
2023-02-02T15:58:59.845Z,12.20
2023-02-02T16:01:32.981Z,13.13
2023-02-02T16:03:59.659Z,11.53
2023-02-02T16:06:26.476Z,11.47
2023-02-02T16:08:53.182Z,12.50
2023-02-02T16:11:25.421Z,12.00
2023-02-02T16:14:04.817Z,11.53
2023-02-02T16:16:37.756Z,13.90
2023-02-02T16:19:23.937Z,11.83
2023-02-02T16:22:04.346Z,11.60
2023-02-02T16:24:36.008Z,12.30
2023-02-02T16:27:07.150Z,11.80
2023-02-02T16:29:35.171Z,11.70
2023-02-02T16:32:02.205Z,13.60
2023-02-02T16:34:41.117Z,13.90
2023-02-02T16:37:22.132Z,11.83
2023-02-02T16:39:49.517Z,13.50
2023-02-02T16:42:29.015Z,12.30
2023-02-02T16:44:57.111Z,13.83
2023-02-02T16:47:26.780Z,14.10
2023-02-02T16:50:08.763Z,14.33
2023-02-02T16:52:53.364Z,13.80
2023-02-02T16:55:21.236Z,13.50
2023-02-02T16:57:49.785Z,15.07
2023-02-02T17:00:31.436Z,16.70
2023-02-02T17:03:05.735Z,15.77
2023-02-02T17:05:35.676Z,17.47
2023-02-02T17:08:05.557Z,16.50
2023-02-02T17:10:38.026Z,18.00
2023-02-02T17:13:30.295Z,19.87
2023-02-02T17:15:58.496Z,19.20
2023-02-02T17:18:25.763Z,18.47
2023-02-02T17:21:03.495Z,19.60
2023-02-02T17:23:32.028Z,19.90
2023-02-02T17:25:59.129Z,19.57
2023-02-02T17:28:26.674Z,19.17
2023-02-02T17:31:06.612Z,20.40
2023-02-02T17:33:35.119Z,21.00
2023-02-02T17:36:03.291Z,18.83
2023-02-02T17:38:30.325Z,19.50
2023-02-02T17:41:01.611Z,18.97
2023-02-02T17:43:29.756Z,19.63
2023-02-02T17:45:56.527Z,18.87
2023-02-02T17:48:23.241Z,19.60
2023-02-02T17:50:50.339Z,19.87
2023-02-02T17:53:19.633Z,21.03
2023-02-02T17:55:49.552Z,20.57
2023-02-02T17:58:19.753Z,18.13
2023-02-02T18:00:56.159Z,20.30
2023-02-02T18:03:27.171Z,20.00
2023-02-02T18:05:54.387Z,18.70
2023-02-02T18:08:21.177Z,23.80
2023-02-02T18:10:48.157Z,22.37
2023-02-02T18:13:18.996Z,24.97
2023-02-02T18:15:46.465Z,23.97
2023-02-02T18:18:13.221Z,22.97
2023-02-02T18:20:48.417Z,20.90
2023-02-02T18:23:16.506Z,20.63
2023-02-02T18:25:43.263Z,21.93
2023-02-02T18:28:11.202Z,21.90
2023-02-02T18:30:39.781Z,21.17
2023-02-02T18:33:09.153Z,20.03
2023-02-02T18:35:40.391Z,21.70
2023-02-02T18:38:07.128Z,22.17
2023-02-02T18:40:33.902Z,21.67
2023-02-02T18:43:00.715Z,21.80
2023-02-02T18:45:28.026Z,22.37
2023-02-02T18:47:54.873Z,24.97
2023-02-02T18:50:21.958Z,22.40
2023-02-02T18:52:48.645Z,20.27
2023-02-02T18:55:15.407Z,22.03
2023-02-02T18:57:42.061Z,22.93
2023-02-02T19:00:09.549Z,29.00
2023-02-02T19:02:36.210Z,26.07
2023-02-02T19:05:41.509Z,29.70
2023-02-02T19:08:08.148Z,26.60
2023-02-02T19:10:35.249Z,25.13
2023-02-02T19:13:14.567Z,21.27
2023-02-02T19:15:42.251Z,27.20
2023-02-02T19:18:19.089Z,26.57
2023-02-02T19:20:46.605Z,31.10
2023-02-02T19:23:15.950Z,29.60
2023-02-02T19:25:46.543Z,32.10
2023-02-02T19:28:25.530Z,31.83
2023-02-02T19:30:54.119Z,30.30
2023-02-02T19:33:21.162Z,32.30
2023-02-02T19:35:52.257Z,33.00
2023-02-02T19:38:20.483Z,36.47
2023-02-02T19:40:48.214Z,34.47
2023-02-02T19:43:23.334Z,39.10
2023-02-02T19:45:50.290Z,32.90
2023-02-02T19:48:24.742Z,37.87
2023-02-02T19:50:51.778Z,34.03
2023-02-02T19:53:37.942Z,33.20
2023-02-02T19:56:24.627Z,34.33
2023-02-02T19:58:51.305Z,32.90
2023-02-02T20:01:21.265Z,34.33
2023-02-02T20:03:47.997Z,32.70
2023-02-02T20:06:24.718Z,29.70
2023-02-02T20:08:52.289Z,31.40
2023-02-02T20:11:36.960Z,28.90
2023-02-02T20:14:32.697Z,29.00
2023-02-02T20:17:07.394Z,29.20
2023-02-02T20:19:40.309Z,27.10
2023-02-02T20:22:28.471Z,27.73
2023-02-02T20:24:57.199Z,24.93
2023-02-02T20:27:26.549Z,29.37
2023-02-02T20:29:57.482Z,25.30
2023-02-02T20:32:36.890Z,26.93
2023-02-02T20:35:34.476Z,28.00
2023-02-02T20:38:01.408Z,24.83
2023-02-02T20:40:29.781Z,24.27
2023-02-02T20:42:58.156Z,25.27
2023-02-02T20:45:25.765Z,24.57
2023-02-02T20:47:52.829Z,23.07
2023-02-02T20:50:21.370Z,23.07
2023-02-02T20:52:48.629Z,23.93
2023-02-02T20:55:15.663Z,22.97
2023-02-02T20:57:42.374Z,21.60
2023-02-02T21:00:12.537Z,22.53
2023-02-02T21:02:39.467Z,23.07
2023-02-02T21:05:07.224Z,23.87
2023-02-02T21:07:33.860Z,22.17
2023-02-02T21:10:00.707Z,20.77
2023-02-02T21:12:27.436Z,20.60
2023-02-02T21:14:54.464Z,20.80
2023-02-02T21:17:21.420Z,20.97
2023-02-02T21:19:48.183Z,20.90
2023-02-02T21:22:15.039Z,20.47
2023-02-02T21:24:42.408Z,21.63
2023-02-02T21:27:09.307Z,22.60
2023-02-02T21:29:36.107Z,19.47
2023-02-02T21:32:04.295Z,21.37
2023-02-02T21:34:32.330Z,20.37
2023-02-02T21:36:59.626Z,20.93
2023-02-02T21:39:31.990Z,21.27
2023-02-02T21:42:07.932Z,20.23
2023-02-02T21:44:44.584Z,21.80
2023-02-02T21:47:23.931Z,21.43
2023-02-02T21:49:51.064Z,22.57
2023-02-02T21:52:19.328Z,22.23
2023-02-02T21:54:47.349Z,22.27
2023-02-02T21:57:36.901Z,21.03
2023-02-02T22:00:36.256Z,18.77
2023-02-02T22:03:03.099Z,18.03
2023-02-02T22:05:35.157Z,18.50
2023-02-02T22:08:07.887Z,18.13
2023-02-02T22:10:39.209Z,15.83
2023-02-02T22:13:16.774Z,15.97
2023-02-02T22:15:48.113Z,15.53
2023-02-02T22:18:18.401Z,16.33
2023-02-02T22:20:47.343Z,16.27
2023-02-02T22:23:16.526Z,17.50
2023-02-02T22:25:44.921Z,14.90
2023-02-02T22:28:25.960Z,15.60
2023-02-02T22:30:54.830Z,15.50
2023-02-02T22:33:23.510Z,16.53
2023-02-02T22:35:50.562Z,17.97
2023-02-02T22:38:22.984Z,17.10
2023-02-02T22:40:51.232Z,18.97
2023-02-02T22:43:19.885Z,15.93
2023-02-02T22:45:47.299Z,18.53
2023-02-02T22:48:15.651Z,17.20
2023-02-02T22:50:42.830Z,17.53
2023-02-02T22:53:10.102Z,17.20
2023-02-02T22:55:36.855Z,17.17
2023-02-02T22:58:03.589Z,16.40
2023-02-02T23:00:33.440Z,17.70
2023-02-02T23:03:00.252Z,20.00
2023-02-02T23:05:28.040Z,18.10
2023-02-02T23:07:55.380Z,18.43
2023-02-02T23:10:25.781Z,17.63
2023-02-02T23:12:54.855Z,16.87
2023-02-02T23:15:21.782Z,18.87
2023-02-02T23:17:48.916Z,17.10
2023-02-02T23:20:16.053Z,19.00
2023-02-02T23:22:42.890Z,17.77
2023-02-02T23:25:10.653Z,15.97
2023-02-02T23:27:37.699Z,15.80
2023-02-02T23:30:05.391Z,17.97
2023-02-02T23:32:32.035Z,16.70
2023-02-02T23:34:59.340Z,16.20
2023-02-02T23:37:26.313Z,15.50
2023-02-02T23:39:53.040Z,16.10
2023-02-02T23:42:19.749Z,16.13
2023-02-02T23:44:46.404Z,17.47
2023-02-02T23:47:13.120Z,15.63
2023-02-02T23:49:40.214Z,15.50
2023-02-02T23:52:07.146Z,16.20
2023-02-02T23:54:34.443Z,15.30
2023-02-02T23:57:01.791Z,15.87
2023-02-02T23:59:29.010Z,17.13
